createdAt,value
2023-01-19T00:00:00.345Z,87
2023-01-19T00:10:00.331Z,87
2023-01-19T00:20:00.320Z,73
2023-01-19T00:30:00.441Z,95
2023-01-19T00:40:00.600Z,76
2023-01-19T00:50:00.637Z,69
2023-01-19T01:00:00.492Z,52
2023-01-19T01:10:00.608Z,27
2023-01-19T01:20:01.125Z,26
2023-01-19T01:30:00.625Z,28
2023-01-19T01:40:00.391Z,32
2023-01-19T01:50:00.505Z,42
2023-01-19T02:00:00.429Z,39
2023-01-19T02:10:00.396Z,37
2023-01-19T02:20:00.319Z,40
2023-01-19T02:30:00.323Z,45
2023-01-19T02:40:00.331Z,40
2023-01-19T02:50:00.345Z,95
2023-01-19T03:00:00.313Z,79
2023-01-19T03:10:00.346Z,35
2023-01-19T03:20:00.324Z,16
2023-01-19T03:30:00.338Z,13
2023-01-19T03:40:00.353Z,11
2023-01-19T03:50:00.344Z,10
2023-01-19T04:00:00.344Z,10
2023-01-19T04:10:00.346Z,11
2023-01-19T04:20:00.336Z,12
2023-01-19T04:30:00.342Z,12
2023-01-19T04:40:00.916Z,15
2023-01-19T04:50:00.372Z,20
2023-01-19T05:00:00.326Z,32
2023-01-19T05:10:00.825Z,37
2023-01-19T05:20:00.807Z,26
2023-01-19T05:30:01.132Z,28
2023-01-19T05:40:00.753Z,22
2023-01-19T05:50:00.523Z,50
2023-01-19T06:00:00.416Z,74
2023-01-19T06:10:00.491Z,44
2023-01-19T06:20:00.371Z,52
2023-01-19T06:30:00.317Z,29
2023-01-19T06:40:00.333Z,27
2023-01-19T06:50:00.314Z,16
2023-01-19T07:00:00.330Z,18
2023-01-19T07:10:00.351Z,24
2023-01-19T07:20:00.325Z,38
2023-01-19T07:30:00.333Z,35
2023-01-19T07:40:00.342Z,44
2023-01-19T07:50:00.351Z,58
2023-01-19T08:00:00.337Z,69
2023-01-19T08:10:00.327Z,68
2023-01-19T08:20:00.333Z,79
2023-01-19T08:30:00.330Z,85
2023-01-19T08:40:00.316Z,95
2023-01-19T08:50:00.309Z,112
2023-01-19T09:00:00.385Z,128
2023-01-19T09:10:00.297Z,125
2023-01-19T09:20:00.329Z,125
2023-01-19T09:30:00.478Z,150
2023-01-19T09:40:00.495Z,159
2023-01-19T09:50:00.456Z,181
2023-01-19T10:00:00.488Z,211
2023-01-19T10:10:00.552Z,170
2023-01-19T10:20:00.569Z,142
2023-01-19T10:30:00.624Z,120
2023-01-19T10:40:00.560Z,115
2023-01-19T10:50:00.530Z,125
2023-01-19T11:00:00.479Z,112
2023-01-19T11:10:00.342Z,169
2023-01-19T11:20:00.348Z,220
2023-01-19T11:30:00.347Z,202
2023-01-19T11:40:00.408Z,196
2023-01-19T11:50:00.324Z,190
2023-01-19T12:00:00.340Z,185
2023-01-19T12:10:00.461Z,176
2023-01-19T12:20:00.357Z,184
2023-01-19T12:30:00.336Z,186
2023-01-19T12:40:00.326Z,183
2023-01-19T12:50:00.323Z,180
2023-01-19T13:00:00.331Z,180
2023-01-19T13:10:00.326Z,180
2023-01-19T13:20:00.321Z,211
2023-01-19T13:30:00.790Z,224
2023-01-19T13:40:00.869Z,226
2023-01-19T13:50:00.838Z,212
2023-01-19T14:00:00.631Z,213
2023-01-19T14:10:00.669Z,216
2023-01-19T14:20:00.668Z,206
2023-01-19T14:30:00.497Z,198
2023-01-19T14:40:00.609Z,185
2023-01-19T14:50:00.484Z,184
2023-01-19T15:00:00.604Z,181
2023-01-19T15:10:00.345Z,174
2023-01-19T15:40:00.324Z,190
2023-01-19T15:50:00.361Z,283
2023-01-19T16:00:00.318Z,163
2023-01-19T16:10:00.374Z,200
2023-01-19T16:40:00.395Z,149
2023-01-19T16:50:00.350Z,186
2023-01-19T17:00:00.324Z,176
2023-01-19T17:10:00.321Z,167
2023-01-19T17:20:00.372Z,145
2023-01-19T17:30:00.507Z,143
2023-01-19T17:40:00.438Z,132
2023-01-19T17:50:00.421Z,116
2023-01-19T18:00:00.336Z,101
2023-01-19T18:10:01.245Z,102
2023-01-19T18:20:00.494Z,103
2023-01-19T18:30:00.540Z,102
2023-01-19T18:40:00.530Z,92
2023-01-19T18:50:00.568Z,94
2023-01-19T19:00:00.543Z,93
2023-01-19T19:10:00.517Z,88
2023-01-19T19:20:00.628Z,93
2023-01-19T19:30:00.860Z,87
2023-01-19T19:40:00.661Z,77
2023-01-19T19:50:00.646Z,71
2023-01-19T20:00:00.655Z,69
2023-01-19T20:10:00.648Z,73
2023-01-19T20:20:01.400Z,72
2023-01-19T20:30:00.603Z,71
2023-01-19T20:40:00.580Z,71
2023-01-19T20:50:00.545Z,71
2023-01-19T21:00:00.557Z,75
2023-01-19T21:10:00.520Z,77
2023-01-19T21:20:00.549Z,81
2023-01-19T21:30:00.535Z,76
2023-01-19T21:40:00.524Z,80
2023-01-19T21:50:00.530Z,96
2023-01-19T22:00:00.514Z,73
2023-01-19T22:10:00.526Z,79
2023-01-19T22:20:00.527Z,85
2023-01-19T22:30:00.531Z,86
2023-01-19T22:40:00.565Z,89
2023-01-19T22:50:00.518Z,90
2023-01-19T23:00:00.564Z,77
2023-01-19T23:10:00.513Z,220
2023-01-19T23:20:00.594Z,107
2023-01-19T23:30:00.504Z,95
2023-01-19T23:40:00.526Z,99
2023-01-19T23:50:00.530Z,95
